Time;durP1;ratioP1;P1;durP2;ratioP2;P2;SDS_P1;SDS_P2;PMS_P1;PMS_P2;Temp;Humidity;BMP_temperature;BMP_pressure;BME280_temperature;BME280_humidity;BME280_pressure;Samples;Min_cycle;Max_cycle;Signal;HPM_P1;HPM_P2
2021/04/29 00:02:23;;;;;;;2.20;1.00;;;17.80;45.90;;;;;;20940173;28;20056;-77
2021/04/29 00:12:24;;;;;;;2.50;1.13;;;17.80;46.00;;;;;;20972608;28;20544;-78
2021/04/29 00:22:25;;;;;;;1.20;1.08;;;17.80;46.00;;;;;;20938832;28;20032;-78
2021/04/29 00:32:25;;;;;;;1.58;1.10;;;17.80;46.00;;;;;;20971346;28;20471;-79
2021/04/29 00:42:26;;;;;;;2.85;1.50;;;17.70;45.90;;;;;;20970764;28;20135;-76
2021/04/29 00:52:29;;;;;;;2.55;1.15;;;17.70;46.00;;;;;;20969715;28;20115;-77
2021/04/29 01:02:29;;;;;;;1.60;1.08;;;17.70;46.00;;;;;;20954106;28;20089;-79
2021/04/29 01:12:36;;;;;;;2.45;1.25;;;17.70;46.10;;;;;;20936246;28;20028;-79
2021/04/29 01:22:41;;;;;;;3.63;1.42;;;17.70;46.10;;;;;;20936464;28;20040;-79
2021/04/29 01:32:42;;;;;;;2.13;1.35;;;17.70;46.10;;;;;;20935603;28;20036;-78
2021/04/29 01:42:42;;;;;;;2.50;1.17;;;17.70;46.20;;;;;;20951775;28;20078;-78
2021/04/29 01:52:43;;;;;;;2.13;1.15;;;17.70;46.20;;;;;;20934895;28;20028;-78
2021/04/29 02:02:43;;;;;;;2.03;1.50;;;17.70;46.30;;;;;;20952625;28;20119;-79
2021/04/29 02:12:50;;;;;;;2.83;1.60;;;17.70;46.30;;;;;;20982344;28;20107;-79
2021/04/29 02:22:50;;;;;;;;;;;17.70;46.40;;;;;;20949612;28;20131;-78
2021/04/29 02:32:51;;;;;;;1.73;1.35;;;17.70;46.50;;;;;;20980805;28;19967;-79
2021/04/29 02:42:51;;;;;;;4.13;2.15;;;17.60;46.50;;;;;;20963476;28;20037;-78
2021/04/29 02:52:52;;;;;;;2.10;1.75;;;17.60;46.60;;;;;;20946405;28;20386;-78
2021/04/29 03:02:54;;;;;;;4.78;1.65;;;17.60;46.70;;;;;;20962602;28;20386;-79
2021/04/29 03:12:54;;;;;;;2.00;1.40;;;17.70;46.90;;;;;;20944840;28;20364;-79
2021/04/29 03:22:55;;;;;;;4.65;1.58;;;17.50;46.90;;;;;;20975648;28;20036;-79
2021/04/29 03:32:55;;;;;;;2.20;1.52;;;17.50;47.00;;;;;;20976296;28;20032;-79
2021/04/29 03:42:56;;;;;;;2.47;1.60;;;17.50;47.10;;;;;;20958609;28;20033;-78
2021/04/29 03:52:57;;;;;;;2.55;1.88;;;17.50;47.20;;;;;;20957613;28;20314;-77
2021/04/29 04:02:57;;;;;;;3.38;2.00;;;17.50;47.30;;;;;;20958571;28;20048;-79
2021/04/29 04:12:58;;;;;;;3.00;2.00;;;17.40;47.40;;;;;;20956629;28;20025;-80
2021/04/29 04:22:59;;;;;;;3.30;1.98;;;17.40;47.50;;;;;;20955937;28;20673;-79
2021/04/29 04:32:59;;;;;;;3.70;2.08;;;17.40;47.50;;;;;;20972021;28;20465;-80
2021/04/29 04:43:00;;;;;;;3.00;2.25;;;17.40;47.60;;;;;;20954476;28;20552;-79
2021/04/29 04:53:00;;;;;;;4.95;2.30;;;17.40;47.70;;;;;;20992412;28;20394;-82
2021/04/29 05:03:01;;;;;;;3.72;2.35;;;17.30;47.70;;;;;;21036476;28;20543;-81
2021/04/29 05:13:02;;;;;;;2.50;1.88;;;17.30;47.80;;;;;;20948248;28;20032;-82
2021/04/29 05:23:03;;;;;;;4.40;2.58;;;17.30;47.80;;;;;;20952566;28;20048;-79
2021/04/29 05:33:04;;;;;;;3.63;2.33;;;17.30;47.90;;;;;;21051934;28;20024;-79
2021/04/29 05:43:05;;;;;;;3.63;1.95;;;17.30;47.90;;;;;;21028400;28;20069;-81
2021/04/29 05:53:05;;;;;;;3.97;2.10;;;17.30;48.00;;;;;;20979337;28;20037;-81
2021/04/29 06:03:06;;;;;;;3.72;2.03;;;17.30;48.00;;;;;;21044649;28;20297;-79
2021/04/29 06:13:07;;;;;;;2.93;2.10;;;17.30;48.00;;;;;;21004883;28;20061;-79
2021/04/29 06:23:07;;;;;;;2.65;1.90;;;17.30;48.10;;;;;;21065646;28;20298;-80
2021/04/29 06:33:08;;;;;;;3.25;1.92;;;17.30;48.10;;;;;;21041389;28;20028;-78
2021/04/29 06:43:09;;;;;;;3.13;1.85;;;17.30;48.10;;;;;;21003025;28;20537;-81
2021/04/29 06:53:10;;;;;;;2.70;1.75;;;17.30;48.20;;;;;;21055191;28;20028;-81
2021/04/29 07:03:10;;;;;;;2.22;1.63;;;17.30;48.20;;;;;;21040044;28;20040;-80
2021/04/29 07:13:11;;;;;;;3.67;2.33;;;17.30;48.30;;;;;;20998615;28;20131;-79
2021/04/29 07:23:14;;;;;;;2.33;1.60;;;17.30;48.30;;;;;;21011566;28;20702;-79
2021/04/29 07:33:16;;;;;;;4.22;2.20;;;17.20;48.40;;;;;;21060659;28;20102;-82
2021/04/29 07:43:17;;;;;;;4.28;2.25;;;17.30;48.40;;;;;;20959176;28;20048;-82
2021/04/29 07:53:17;;;;;;;2.30;1.85;;;17.30;48.40;;;;;;20943623;28;20339;-83
2021/04/29 08:03:18;;;;;;;3.35;2.53;;;17.20;48.50;;;;;;20957360;28;20050;-80
2021/04/29 08:13:18;;;;;;;4.85;2.63;;;17.20;48.60;;;;;;20957331;28;20091;-81
2021/04/29 08:23:20;;;;;;;4.07;2.65;;;17.20;48.60;;;;;;20977033;28;20495;-82
2021/04/29 08:33:21;;;;;;;3.28;2.10;;;17.30;48.70;;;;;;20990529;28;20033;-82
2021/04/29 08:43:22;;;;;;;3.85;2.50;;;17.30;48.70;;;;;;21380187;22;20048;-75
2021/04/29 08:53:22;;;;;;;2.95;2.22;;;17.30;48.70;;;;;;20954621;28;20047;-79
2021/04/29 09:03:41;;;;;;;3.42;2.35;;;17.30;48.70;;;;;;21001165;28;20035;-81
2021/04/29 09:13:53;;;;;;;5.40;2.63;;;17.30;48.80;;;;;;20958610;28;20040;-82
2021/04/29 09:23:55;;;;;;;3.88;2.47;;;17.30;48.80;;;;;;20963296;28;20020;-80
2021/04/29 09:33:57;;;;;;;3.40;2.10;;;17.20;48.80;;;;;;20960158;28;20398;-80
2021/04/29 09:43:59;;;;;;;3.53;2.38;;;17.20;48.90;;;;;;20952528;28;20052;-82
2021/04/29 09:54:00;;;;;;;4.50;2.53;;;17.20;48.90;;;;;;20957836;28;20103;-77
2021/04/29 10:04:01;;;;;;;3.22;2.08;;;17.20;49.00;;;;;;20984036;28;20040;-77
2021/04/29 10:14:01;;;;;;;4.13;2.47;;;17.20;49.80;;;;;;21005090;28;20041;-76
2021/04/29 10:24:02;;;;;;;3.63;2.00;;;17.20;49.20;;;;;;21034291;28;20541;-78
2021/04/29 10:34:05;;;;;;;3.33;2.28;;;17.20;49.30;;;;;;21037977;28;20285;-75
2021/04/29 10:44:12;;;;;;;3.97;2.50;;;17.20;49.30;;;;;;20955546;28;20048;-74
2021/04/29 10:54:15;;;;;;;3.10;2.33;;;17.10;49.20;;;;;;20985404;28;20032;-74
2021/04/29 11:04:21;;;;;;;3.63;2.22;;;17.20;49.30;;;;;;20930680;28;20040;-73
2021/04/29 11:14:22;;;;;;;4.05;2.35;;;17.20;49.60;;;;;;20941762;28;20478;-73
2021/04/29 11:24:33;;;;;;;3.03;2.20;;;17.20;49.80;;;;;;20956467;28;20640;-73
2021/04/29 11:34:45;;;;;;;2.70;2.25;;;17.20;50.00;;;;;;20960277;28;20044;-73
2021/04/29 11:44:45;;;;;;;2.88;1.83;;;17.20;50.00;;;;;;20986297;28;20048;-75
2021/04/29 11:54:47;;;;;;;4.03;2.50;;;17.20;49.90;;;;;;20962448;28;20052;-75
2021/04/29 12:04:49;;;;;;;4.07;3.20;;;17.30;50.00;;;;;;20958315;28;20119;-75
2021/04/29 12:14:54;;;;;;;2.67;2.25;;;17.30;50.20;;;;;;20942040;28;20394;-76
2021/04/29 12:24:55;;;;;;;4.15;2.63;;;17.30;50.30;;;;;;20939018;28;20467;-75
2021/04/29 12:34:55;;;;;;;4.22;2.55;;;17.30;50.40;;;;;;20936191;28;20051;-75
2021/04/29 12:45:01;;;;;;;3.33;2.35;;;17.20;50.50;;;;;;20981984;28;20043;-74
2021/04/29 12:55:12;;;;;;;5.37;1.97;;;17.20;50.70;;;;;;20933260;28;20063;-74
2021/04/29 13:05:13;;;;;;;3.35;2.28;;;17.30;51.00;;;;;;20977977;28;20050;-77
2021/04/29 13:15:14;;;;;;;4.15;2.22;;;17.10;50.80;;;;;;20929306;28;20071;-73
2021/04/29 13:25:17;;;;;;;2.97;2.25;;;17.10;50.90;;;;;;20931102;28;20373;-73
2021/04/29 13:35:18;;;;;;;3.05;2.15;;;17.00;50.90;;;;;;20919757;28;20047;-73
2021/04/29 13:45:18;;;;;;;2.72;2.00;;;17.00;50.90;;;;;;20959983;28;20048;-74
2021/04/29 13:55:19;;;;;;;3.70;2.27;;;16.90;50.90;;;;;;20954610;28;20382;-74
2021/04/29 14:05:20;;;;;;;4.22;2.03;;;17.00;50.90;;;;;;20973938;28;20390;-74
2021/04/29 14:15:20;;;;;;;2.80;1.85;;;17.00;51.00;;;;;;20948309;28;20036;-73
2021/04/29 14:25:24;;;;;;;3.10;2.45;;;17.00;51.00;;;;;;20982420;28;20033;-76
2021/04/29 14:35:25;;;;;;;3.42;2.15;;;17.10;50.80;;;;;;21020662;28;20044;-76
2021/04/29 14:45:27;;;;;;;5.03;2.58;;;17.30;50.80;;;;;;20966310;28;20040;-80
2021/04/29 14:55:27;;;;;;;4.57;2.53;;;17.40;50.70;;;;;;21085774;28;20432;-77
2021/04/29 15:05:29;;;;;;;4.82;1.58;;;17.50;51.20;;;;;;21035488;28;20033;-73
2021/04/29 15:15:30;;;;;;;7.05;2.05;;;17.50;51.30;;;;;;21007544;28;20036;-75
2021/04/29 15:25:31;;;;;;;3.25;1.95;;;17.50;51.50;;;;;;20971120;28;20035;-74
2021/04/29 15:35:35;;;;;;;4.53;2.10;;;17.30;51.80;;;;;;21016223;28;20047;-77
2021/04/29 15:45:35;;;;;;;5.03;1.52;;;17.20;52.00;;;;;;21014632;28;20293;-77
2021/04/29 15:55:37;;;;;;;5.13;2.58;;;17.10;52.20;;;;;;21012724;28;20500;-76
2021/04/29 16:05:38;;;;;;;4.18;1.83;;;17.10;52.20;;;;;;21046200;28;20074;-75
2021/04/29 16:15:39;;;;;;;2.33;2.00;;;17.10;52.20;;;;;;21045581;28;20473;-74
2021/04/29 16:25:40;;;;;;;1.58;1.42;;;17.20;52.10;;;;;;21026772;28;20044;-74
2021/04/29 16:35:41;;;;;;;2.35;1.55;;;17.10;51.90;;;;;;21025495;28;20535;-73
2021/04/29 16:45:45;;;;;;;2.03;1.40;;;17.10;52.70;;;;;;21039628;28;20047;-76
2021/04/29 16:55:46;;;;;;;2.30;1.52;;;17.00;52.00;;;;;;21022812;28;20394;-73
2021/04/29 17:05:47;;;;;;;2.67;1.45;;;17.00;52.30;;;;;;21018994;28;20044;-72
2021/04/29 17:15:48;;;;;;;3.70;1.60;;;16.90;52.30;;;;;;20954091;28;20032;-74
2021/04/29 17:25:48;;;;;;;4.75;2.05;;;16.80;52.40;;;;;;20961268;28;20160;-74
2021/04/29 17:35:49;;;;;;;1.92;1.58;;;16.70;52.30;;;;;;20922529;28;20124;-73
2021/04/29 17:45:50;;;;;;;8.52;3.58;;;16.70;52.30;;;;;;20962899;28;20480;-74
2021/04/29 17:55:50;;;;;;;3.47;1.70;;;16.70;52.30;;;;;;20977858;28;20535;-75
2021/04/29 18:05:51;;;;;;;2.08;1.75;;;16.70;52.20;;;;;;20983823;28;20295;-75
2021/04/29 18:15:51;;;;;;;4.03;2.03;;;16.70;52.20;;;;;;20983897;28;20108;-74
2021/04/29 18:25:52;;;;;;;2.03;1.60;;;16.70;52.30;;;;;;20982374;28;20048;-75
2021/04/29 18:35:53;;;;;;;2.10;1.42;;;16.70;52.40;;;;;;20955835;28;20023;-74
2021/04/29 18:45:53;;;;;;;2.67;1.45;;;16.60;52.40;;;;;;21034961;28;20032;-74
2021/04/29 18:55:54;;;;;;;3.45;1.80;;;16.60;52.40;;;;;;21006677;28;20114;-75
2021/04/29 19:05:54;;;;;;;2.40;1.30;;;16.60;52.50;;;;;;21047999;28;20066;-74
2021/04/29 19:15:55;;;;;;;2.95;2.10;;;16.60;52.50;;;;;;21050489;28;20032;-73
2021/04/29 19:25:56;;;;;;;2.80;1.80;;;16.50;52.40;;;;;;21033502;28;20036;-74
2021/04/29 19:35:56;;;;;;;1.65;1.40;;;16.50;52.30;;;;;;21033328;28;20420;-74
2021/04/29 19:45:58;;;;;;;2.38;1.40;;;16.50;52.30;;;;;;21033033;28;20112;-74
2021/04/29 19:55:59;;;;;;;5.55;1.70;;;16.50;52.30;;;;;;21048018;28;20043;-73
2021/04/29 20:05:59;;;;;;;2.72;1.67;;;16.50;52.30;;;;;;21031181;28;20469;-73
2021/04/29 20:16:00;;;;;;;2.20;1.50;;;16.50;52.30;;;;;;21029855;28;20478;-73
2021/04/29 20:26:00;;;;;;;1.92;1.40;;;16.50;52.30;;;;;;21028988;28;20059;-75
2021/04/29 20:36:01;;;;;;;2.75;1.90;;;16.50;52.30;;;;;;21046309;28;20061;-75
2021/04/29 20:46:02;;;;;;;2.80;1.80;;;16.50;52.30;;;;;;21011836;28;20043;-74
2021/04/29 20:56:02;;;;;;;1.70;1.33;;;16.40;52.10;;;;;;21027718;28;20394;-74
2021/04/29 21:06:03;;;;;;;1.92;1.55;;;16.50;52.20;;;;;;21027684;28;20385;-73
2021/04/29 21:16:04;;;;;;;1.70;1.20;;;16.50;52.10;;;;;;21042413;28;20031;-73
2021/04/29 21:26:04;;;;;;;1.33;1.00;;;16.40;52.00;;;;;;21025659;28;20093;-76
2021/04/29 21:36:05;;;;;;;3.00;1.30;;;16.40;51.90;;;;;;21026445;28;20417;-75
2021/04/29 21:46:06;;;;;;;2.20;1.30;;;16.40;51.90;;;;;;21009902;28;20484;-74
2021/04/29 21:56:06;;;;;;;3.40;1.60;;;16.40;51.80;;;;;;21025962;28;20131;-73
2021/04/29 22:06:08;;;;;;;1.27;1.10;;;16.40;51.80;;;;;;21025263;28;20329;-74
2021/04/29 22:16:09;;;;;;;3.25;1.27;;;16.40;51.80;;;;;;21041725;28;20326;-73
2021/04/29 22:26:09;;;;;;;1.75;1.30;;;16.30;51.70;;;;;;21051566;28;20123;-74
2021/04/29 22:36:10;;;;;;;2.03;1.00;;;16.30;51.60;;;;;;21038876;28;20114;-73
2021/04/29 22:46:13;;;;;;;1.08;0.90;;;16.30;51.60;;;;;;21054273;28;20043;-74
2021/04/29 22:56:13;;;;;;;3.53;1.25;;;16.30;51.60;;;;;;21036375;28;20056;-73
2021/04/29 23:06:14;;;;;;;1.90;1.08;;;16.30;51.60;;;;;;21019914;28;20126;-76
2021/04/29 23:16:15;;;;;;;1.95;1.10;;;16.30;51.60;;;;;;21051288;28;20032;-74
2021/04/29 23:26:15;;;;;;;1.48;1.00;;;16.30;51.60;;;;;;21066946;28;20486;-73
2021/04/29 23:36:16;;;;;;;2.55;1.00;;;16.30;51.60;;;;;;21049713;28;20150;-73
2021/04/29 23:46:16;;;;;;;2.00;1.10;;;16.30;51.60;;;;;;21066750;28;20543;-75
2021/04/29 23:56:17;;;;;;;1.20;0.95;;;16.30;51.60;;;;;;21049153;28;20390;-74
